sensor_id;sensor_type;location;lat;lon;timestamp;temperature;humidity
19435;DHT22;9853;50.848;4.108;2022-08-19T00:01:43;21.70;99.90
19435;DHT22;9853;50.848;4.108;2022-08-19T00:03:44;21.70;99.90
19435;DHT22;9853;50.848;4.108;2022-08-19T00:05:45;21.70;99.90
19435;DHT22;9853;50.848;4.108;2022-08-19T00:07:46;21.80;99.90
19435;DHT22;9853;50.848;4.108;2022-08-19T00:09:47;21.80;99.90
19435;DHT22;9853;50.848;4.108;2022-08-19T00:11:48;21.70;99.90
19435;DHT22;9853;50.848;4.108;2022-08-19T00:13:49;21.60;99.90
19435;DHT22;9853;50.848;4.108;2022-08-19T00:15:50;21.70;99.90
19435;DHT22;9853;50.848;4.108;2022-08-19T00:17:52;21.70;99.90
19435;DHT22;9853;50.848;4.108;2022-08-19T00:19:52;21.70;99.90
19435;DHT22;9853;50.848;4.108;2022-08-19T00:21:53;21.80;99.90
19435;DHT22;9853;50.848;4.108;2022-08-19T00:23:55;21.80;99.90
19435;DHT22;9853;50.848;4.108;2022-08-19T00:25:58;21.70;99.90
19435;DHT22;9853;50.848;4.108;2022-08-19T00:27:59;21.70;99.90
19435;DHT22;9853;50.848;4.108;2022-08-19T00:30:00;21.60;99.90
19435;DHT22;9853;50.848;4.108;2022-08-19T00:32:03;21.60;99.90
19435;DHT22;9853;50.848;4.108;2022-08-19T00:34:04;21.50;99.90
19435;DHT22;9853;50.848;4.108;2022-08-19T00:36:07;21.40;99.90
19435;DHT22;9853;50.848;4.108;2022-08-19T00:38:08;21.30;99.90
19435;DHT22;9853;50.848;4.108;2022-08-19T00:40:09;21.30;99.90
19435;DHT22;9853;50.848;4.108;2022-08-19T00:42:09;21.30;99.90
19435;DHT22;9853;50.848;4.108;2022-08-19T00:44:17;21.20;99.90
19435;DHT22;9853;50.848;4.108;2022-08-19T00:46:20;21.20;99.90
19435;DHT22;9853;50.848;4.108;2022-08-19T00:48:21;21.10;99.90
19435;DHT22;9853;50.848;4.108;2022-08-19T00:50:23;21.00;99.90
19435;DHT22;9853;50.848;4.108;2022-08-19T00:52:30;21.00;99.90
19435;DHT22;9853;50.848;4.108;2022-08-19T00:54:33;20.90;99.90
19435;DHT22;9853;50.848;4.108;2022-08-19T00:56:33;20.90;99.90
19435;DHT22;9853;50.848;4.108;2022-08-19T00:58:56;20.80;99.90
19435;DHT22;9853;50.848;4.108;2022-08-19T01:00:58;20.60;99.90
19435;DHT22;9853;50.848;4.108;2022-08-19T01:02:59;20.60;99.90
19435;DHT22;9853;50.848;4.108;2022-08-19T01:05:03;20.60;99.90
19435;DHT22;9853;50.848;4.108;2022-08-19T01:07:05;20.60;99.90
19435;DHT22;9853;50.848;4.108;2022-08-19T01:09:07;20.50;99.90
19435;DHT22;9853;50.848;4.108;2022-08-19T01:11:11;20.40;99.90
19435;DHT22;9853;50.848;4.108;2022-08-19T01:13:15;20.30;99.90
19435;DHT22;9853;50.848;4.108;2022-08-19T01:15:20;20.40;99.90
19435;DHT22;9853;50.848;4.108;2022-08-19T01:17:21;20.40;99.90
19435;DHT22;9853;50.848;4.108;2022-08-19T01:19:35;20.30;99.90
19435;DHT22;9853;50.848;4.108;2022-08-19T01:22:02;20.30;99.90
19435;DHT22;9853;50.848;4.108;2022-08-19T01:24:04;20.30;99.90
19435;DHT22;9853;50.848;4.108;2022-08-19T01:26:04;20.30;99.90
19435;DHT22;9853;50.848;4.108;2022-08-19T01:28:05;20.20;99.90
19435;DHT22;9853;50.848;4.108;2022-08-19T01:30:07;20.20;99.90
19435;DHT22;9853;50.848;4.108;2022-08-19T01:32:10;20.20;99.90
19435;DHT22;9853;50.848;4.108;2022-08-19T01:34:12;20.10;99.90
19435;DHT22;9853;50.848;4.108;2022-08-19T01:36:22;20.10;99.90
19435;DHT22;9853;50.848;4.108;2022-08-19T01:38:26;20.10;99.90
19435;DHT22;9853;50.848;4.108;2022-08-19T01:40:31;20.10;99.90
19435;DHT22;9853;50.848;4.108;2022-08-19T01:42:33;20.10;99.90
19435;DHT22;9853;50.848;4.108;2022-08-19T01:44:33;20.00;99.90
19435;DHT22;9853;50.848;4.108;2022-08-19T01:46:36;20.00;99.90
19435;DHT22;9853;50.848;4.108;2022-08-19T01:48:40;20.00;99.90
19435;DHT22;9853;50.848;4.108;2022-08-19T01:50:41;20.00;99.90
19435;DHT22;9853;50.848;4.108;2022-08-19T01:52:43;20.00;99.90
19435;DHT22;9853;50.848;4.108;2022-08-19T01:54:44;19.90;99.90
19435;DHT22;9853;50.848;4.108;2022-08-19T01:56:45;19.90;99.90
19435;DHT22;9853;50.848;4.108;2022-08-19T01:59:01;19.80;99.90
19435;DHT22;9853;50.848;4.108;2022-08-19T02:01:04;19.70;99.90
19435;DHT22;9853;50.848;4.108;2022-08-19T02:03:05;19.70;99.90
19435;DHT22;9853;50.848;4.108;2022-08-19T02:05:07;19.70;99.90
19435;DHT22;9853;50.848;4.108;2022-08-19T02:07:09;19.70;99.90
19435;DHT22;9853;50.848;4.108;2022-08-19T02:09:09;19.80;99.90
19435;DHT22;9853;50.848;4.108;2022-08-19T02:11:19;19.80;99.90
19435;DHT22;9853;50.848;4.108;2022-08-19T02:13:21;19.70;99.90
19435;DHT22;9853;50.848;4.108;2022-08-19T02:15:22;19.60;99.90
19435;DHT22;9853;50.848;4.108;2022-08-19T02:17:22;19.60;99.90
19435;DHT22;9853;50.848;4.108;2022-08-19T02:19:23;19.60;99.90
19435;DHT22;9853;50.848;4.108;2022-08-19T02:21:24;19.70;99.90
19435;DHT22;9853;50.848;4.108;2022-08-19T02:23:25;19.60;99.90
19435;DHT22;9853;50.848;4.108;2022-08-19T02:25:25;19.60;99.90
19435;DHT22;9853;50.848;4.108;2022-08-19T02:27:26;19.60;99.90
19435;DHT22;9853;50.848;4.108;2022-08-19T02:29:27;19.60;99.90
19435;DHT22;9853;50.848;4.108;2022-08-19T02:31:28;19.50;99.90
19435;DHT22;9853;50.848;4.108;2022-08-19T02:33:29;19.50;99.90
19435;DHT22;9853;50.848;4.108;2022-08-19T02:35:30;19.60;99.90
19435;DHT22;9853;50.848;4.108;2022-08-19T02:37:31;19.40;99.90
19435;DHT22;9853;50.848;4.108;2022-08-19T02:39:50;19.40;99.90
19435;DHT22;9853;50.848;4.108;2022-08-19T02:41:51;19.40;99.90
19435;DHT22;9853;50.848;4.108;2022-08-19T02:43:56;19.40;99.90
19435;DHT22;9853;50.848;4.108;2022-08-19T02:45:58;19.50;99.90
19435;DHT22;9853;50.848;4.108;2022-08-19T02:47:59;19.50;99.90
19435;DHT22;9853;50.848;4.108;2022-08-19T02:50:01;19.60;99.90
19435;DHT22;9853;50.848;4.108;2022-08-19T02:52:03;19.40;99.90
19435;DHT22;9853;50.848;4.108;2022-08-19T02:54:05;19.60;99.90
19435;DHT22;9853;50.848;4.108;2022-08-19T02:56:07;19.60;99.90
19435;DHT22;9853;50.848;4.108;2022-08-19T02:58:08;19.60;99.90
19435;DHT22;9853;50.848;4.108;2022-08-19T03:00:09;19.30;99.90
19435;DHT22;9853;50.848;4.108;2022-08-19T03:02:15;19.40;99.90
19435;DHT22;9853;50.848;4.108;2022-08-19T03:04:16;19.40;99.90
19435;DHT22;9853;50.848;4.108;2022-08-19T03:06:17;19.50;99.90
19435;DHT22;9853;50.848;4.108;2022-08-19T03:08:22;19.40;99.90
19435;DHT22;9853;50.848;4.108;2022-08-19T03:10:22;19.40;99.90
19435;DHT22;9853;50.848;4.108;2022-08-19T03:12:23;19.40;99.90
19435;DHT22;9853;50.848;4.108;2022-08-19T03:14:33;19.40;99.90
19435;DHT22;9853;50.848;4.108;2022-08-19T03:16:52;19.40;99.90
19435;DHT22;9853;50.848;4.108;2022-08-19T03:19:03;19.40;99.90
19435;DHT22;9853;50.848;4.108;2022-08-19T03:21:14;19.40;99.90
19435;DHT22;9853;50.848;4.108;2022-08-19T03:23:17;19.30;99.90
19435;DHT22;9853;50.848;4.108;2022-08-19T03:25:25;19.30;99.90
19435;DHT22;9853;50.848;4.108;2022-08-19T03:27:42;19.30;99.90
19435;DHT22;9853;50.848;4.108;2022-08-19T03:29:53;19.30;99.90
19435;DHT22;9853;50.848;4.108;2022-08-19T03:31:55;19.30;99.90
19435;DHT22;9853;50.848;4.108;2022-08-19T03:33:56;19.40;99.90
19435;DHT22;9853;50.848;4.108;2022-08-19T03:36:12;19.30;99.90
19435;DHT22;9853;50.848;4.108;2022-08-19T03:38:36;19.20;99.90
19435;DHT22;9853;50.848;4.108;2022-08-19T03:40:38;19.00;99.90
19435;DHT22;9853;50.848;4.108;2022-08-19T03:42:43;19.00;99.90
19435;DHT22;9853;50.848;4.108;2022-08-19T03:44:44;19.10;99.90
19435;DHT22;9853;50.848;4.108;2022-08-19T03:46:47;19.10;99.90
19435;DHT22;9853;50.848;4.108;2022-08-19T03:48:51;19.10;99.90
19435;DHT22;9853;50.848;4.108;2022-08-19T03:50:56;19.10;99.90
19435;DHT22;9853;50.848;4.108;2022-08-19T03:52:59;19.00;99.90
19435;DHT22;9853;50.848;4.108;2022-08-19T03:55:04;18.90;99.90
19435;DHT22;9853;50.848;4.108;2022-08-19T03:57:07;18.80;99.90
19435;DHT22;9853;50.848;4.108;2022-08-19T03:59:11;18.80;99.90
19435;DHT22;9853;50.848;4.108;2022-08-19T04:01:16;18.80;99.90
19435;DHT22;9853;50.848;4.108;2022-08-19T04:03:44;18.80;99.90
19435;DHT22;9853;50.848;4.108;2022-08-19T04:06:16;18.60;99.90
19435;DHT22;9853;50.848;4.108;2022-08-19T04:08:26;18.60;99.90
19435;DHT22;9853;50.848;4.108;2022-08-19T04:10:31;18.60;99.90
19435;DHT22;9853;50.848;4.108;2022-08-19T04:12:37;18.60;99.90
19435;DHT22;9853;50.848;4.108;2022-08-19T04:14:37;18.50;99.90
19435;DHT22;9853;50.848;4.108;2022-08-19T04:16:47;18.40;99.90
19435;DHT22;9853;50.848;4.108;2022-08-19T04:19:11;18.40;99.90
19435;DHT22;9853;50.848;4.108;2022-08-19T04:21:21;18.30;99.90
19435;DHT22;9853;50.848;4.108;2022-08-19T04:23:23;18.30;99.90
19435;DHT22;9853;50.848;4.108;2022-08-19T04:25:24;18.30;99.90
19435;DHT22;9853;50.848;4.108;2022-08-19T04:27:24;18.20;99.90
19435;DHT22;9853;50.848;4.108;2022-08-19T04:29:25;18.30;99.90
19435;DHT22;9853;50.848;4.108;2022-08-19T04:31:29;18.30;99.90
19435;DHT22;9853;50.848;4.108;2022-08-19T04:33:33;18.20;99.90
19435;DHT22;9853;50.848;4.108;2022-08-19T04:35:40;18.20;99.90
19435;DHT22;9853;50.848;4.108;2022-08-19T04:37:41;18.20;99.90
19435;DHT22;9853;50.848;4.108;2022-08-19T04:39:44;18.10;99.90
19435;DHT22;9853;50.848;4.108;2022-08-19T04:42:05;18.20;99.90
19435;DHT22;9853;50.848;4.108;2022-08-19T04:44:25;18.10;99.90
19435;DHT22;9853;50.848;4.108;2022-08-19T04:46:31;18.10;99.90
19435;DHT22;9853;50.848;4.108;2022-08-19T04:48:32;18.20;99.90
19435;DHT22;9853;50.848;4.108;2022-08-19T04:50:46;18.30;99.90
19435;DHT22;9853;50.848;4.108;2022-08-19T04:52:50;18.50;99.90
19435;DHT22;9853;50.848;4.108;2022-08-19T04:54:55;18.50;99.90
19435;DHT22;9853;50.848;4.108;2022-08-19T04:56:56;18.40;99.90
19435;DHT22;9853;50.848;4.108;2022-08-19T04:58:57;18.40;99.90
19435;DHT22;9853;50.848;4.108;2022-08-19T05:00:58;18.40;99.90
19435;DHT22;9853;50.848;4.108;2022-08-19T05:03:03;18.30;99.90
19435;DHT22;9853;50.848;4.108;2022-08-19T05:05:19;18.20;99.90
19435;DHT22;9853;50.848;4.108;2022-08-19T05:07:20;18.10;99.90
19435;DHT22;9853;50.848;4.108;2022-08-19T05:09:23;18.00;99.90
19435;DHT22;9853;50.848;4.108;2022-08-19T05:11:30;18.00;99.90
19435;DHT22;9853;50.848;4.108;2022-08-19T05:13:31;18.10;99.90
19435;DHT22;9853;50.848;4.108;2022-08-19T05:15:35;18.10;99.90
19435;DHT22;9853;50.848;4.108;2022-08-19T05:17:36;18.10;99.90
19435;DHT22;9853;50.848;4.108;2022-08-19T05:19:43;18.10;99.90
19435;DHT22;9853;50.848;4.108;2022-08-19T05:22:03;18.10;99.90
19435;DHT22;9853;50.848;4.108;2022-08-19T05:24:23;18.10;99.90
19435;DHT22;9853;50.848;4.108;2022-08-19T05:26:25;18.10;99.90
19435;DHT22;9853;50.848;4.108;2022-08-19T05:28:26;18.10;99.90
19435;DHT22;9853;50.848;4.108;2022-08-19T05:30:36;18.20;99.90
19435;DHT22;9853;50.848;4.108;2022-08-19T05:32:38;18.30;99.90
19435;DHT22;9853;50.848;4.108;2022-08-19T05:34:49;18.30;99.90
19435;DHT22;9853;50.848;4.108;2022-08-19T05:36:50;18.30;99.90
19435;DHT22;9853;50.848;4.108;2022-08-19T05:39:11;18.30;99.90
19435;DHT22;9853;50.848;4.108;2022-08-19T05:41:13;18.30;99.90
19435;DHT22;9853;50.848;4.108;2022-08-19T05:43:15;18.30;99.90
19435;DHT22;9853;50.848;4.108;2022-08-19T05:45:16;18.30;99.90
19435;DHT22;9853;50.848;4.108;2022-08-19T05:47:18;18.20;99.90
19435;DHT22;9853;50.848;4.108;2022-08-19T05:49:24;18.30;99.90
19435;DHT22;9853;50.848;4.108;2022-08-19T05:51:25;18.50;99.90
19435;DHT22;9853;50.848;4.108;2022-08-19T05:53:27;18.50;99.90
19435;DHT22;9853;50.848;4.108;2022-08-19T05:55:29;18.60;99.90
19435;DHT22;9853;50.848;4.108;2022-08-19T05:57:31;18.70;99.90
19435;DHT22;9853;50.848;4.108;2022-08-19T05:59:32;18.80;99.90
19435;DHT22;9853;50.848;4.108;2022-08-19T06:01:56;18.90;99.90
19435;DHT22;9853;50.848;4.108;2022-08-19T06:03:57;19.30;99.90
19435;DHT22;9853;50.848;4.108;2022-08-19T06:05:58;19.30;99.90
19435;DHT22;9853;50.848;4.108;2022-08-19T06:07:59;19.50;99.90
19435;DHT22;9853;50.848;4.108;2022-08-19T06:10:05;19.90;99.90
19435;DHT22;9853;50.848;4.108;2022-08-19T06:12:09;20.10;99.90
19435;DHT22;9853;50.848;4.108;2022-08-19T06:14:17;20.40;99.90
19435;DHT22;9853;50.848;4.108;2022-08-19T06:16:19;20.50;99.90
19435;DHT22;9853;50.848;4.108;2022-08-19T06:18:23;20.50;99.90
19435;DHT22;9853;50.848;4.108;2022-08-19T06:20:24;20.70;99.90
19435;DHT22;9853;50.848;4.108;2022-08-19T06:22:30;20.60;99.90
19435;DHT22;9853;50.848;4.108;2022-08-19T06:24:31;20.90;99.90
19435;DHT22;9853;50.848;4.108;2022-08-19T06:26:34;21.00;99.90
19435;DHT22;9853;50.848;4.108;2022-08-19T06:28:35;21.00;99.90
19435;DHT22;9853;50.848;4.108;2022-08-19T06:30:36;21.00;99.90
19435;DHT22;9853;50.848;4.108;2022-08-19T06:32:40;20.90;99.90
19435;DHT22;9853;50.848;4.108;2022-08-19T06:34:42;20.90;99.90
19435;DHT22;9853;50.848;4.108;2022-08-19T06:36:48;20.80;99.90
19435;DHT22;9853;50.848;4.108;2022-08-19T06:38:49;21.10;99.90
19435;DHT22;9853;50.848;4.108;2022-08-19T06:40:50;21.20;99.90
19435;DHT22;9853;50.848;4.108;2022-08-19T06:42:51;21.10;99.90
19435;DHT22;9853;50.848;4.108;2022-08-19T06:44:53;21.30;99.90
19435;DHT22;9853;50.848;4.108;2022-08-19T06:46:55;21.10;99.90
19435;DHT22;9853;50.848;4.108;2022-08-19T06:48:56;21.10;99.90
19435;DHT22;9853;50.848;4.108;2022-08-19T06:50:58;21.30;99.90
19435;DHT22;9853;50.848;4.108;2022-08-19T06:52:59;21.30;99.90
19435;DHT22;9853;50.848;4.108;2022-08-19T06:55:03;21.50;99.90
19435;DHT22;9853;50.848;4.108;2022-08-19T06:57:05;21.70;99.90
19435;DHT22;9853;50.848;4.108;2022-08-19T06:59:23;21.60;99.90
19435;DHT22;9853;50.848;4.108;2022-08-19T07:01:28;21.60;99.90
19435;DHT22;9853;50.848;4.108;2022-08-19T07:03:34;21.70;99.90
19435;DHT22;9853;50.848;4.108;2022-08-19T07:05:41;21.60;99.90
19435;DHT22;9853;50.848;4.108;2022-08-19T07:07:58;22.00;99.90
19435;DHT22;9853;50.848;4.108;2022-08-19T07:10:15;22.30;99.90
19435;DHT22;9853;50.848;4.108;2022-08-19T07:12:19;22.40;99.90
19435;DHT22;9853;50.848;4.108;2022-08-19T07:14:23;22.60;99.90
19435;DHT22;9853;50.848;4.108;2022-08-19T07:16:28;23.10;99.90
19435;DHT22;9853;50.848;4.108;2022-08-19T07:18:32;23.50;99.90
19435;DHT22;9853;50.848;4.108;2022-08-19T07:20:33;23.60;99.90
19435;DHT22;9853;50.848;4.108;2022-08-19T07:22:34;23.70;99.90
19435;DHT22;9853;50.848;4.108;2022-08-19T07:24:35;23.90;99.90
19435;DHT22;9853;50.848;4.108;2022-08-19T07:26:43;24.00;99.90
19435;DHT22;9853;50.848;4.108;2022-08-19T07:28:43;24.00;99.90
19435;DHT22;9853;50.848;4.108;2022-08-19T07:30:44;23.80;99.90
19435;DHT22;9853;50.848;4.108;2022-08-19T07:32:46;23.60;99.90
19435;DHT22;9853;50.848;4.108;2022-08-19T07:34:48;23.60;99.90
19435;DHT22;9853;50.848;4.108;2022-08-19T07:36:49;23.70;99.90
19435;DHT22;9853;50.848;4.108;2022-08-19T07:38:54;23.60;99.90
19435;DHT22;9853;50.848;4.108;2022-08-19T07:40:58;23.30;99.90
19435;DHT22;9853;50.848;4.108;2022-08-19T07:43:02;23.30;99.90
19435;DHT22;9853;50.848;4.108;2022-08-19T07:45:05;23.20;99.90
19435;DHT22;9853;50.848;4.108;2022-08-19T07:47:06;23.00;99.90
19435;DHT22;9853;50.848;4.108;2022-08-19T07:49:11;23.00;99.90
19435;DHT22;9853;50.848;4.108;2022-08-19T07:51:25;23.20;99.90
19435;DHT22;9853;50.848;4.108;2022-08-19T07:53:26;22.90;99.90
19435;DHT22;9853;50.848;4.108;2022-08-19T07:55:28;23.00;99.90
19435;DHT22;9853;50.848;4.108;2022-08-19T07:57:29;23.20;99.90
19435;DHT22;9853;50.848;4.108;2022-08-19T07:59:30;23.10;99.90
19435;DHT22;9853;50.848;4.108;2022-08-19T08:01:31;23.00;99.90
19435;DHT22;9853;50.848;4.108;2022-08-19T08:03:33;23.00;99.90
19435;DHT22;9853;50.848;4.108;2022-08-19T08:05:52;23.00;99.90
19435;DHT22;9853;50.848;4.108;2022-08-19T08:08:27;23.30;99.90
19435;DHT22;9853;50.848;4.108;2022-08-19T08:10:43;23.30;99.90
19435;DHT22;9853;50.848;4.108;2022-08-19T08:12:51;23.40;99.90
19435;DHT22;9853;50.848;4.108;2022-08-19T08:14:55;23.40;99.90
19435;DHT22;9853;50.848;4.108;2022-08-19T08:16:59;23.50;99.90
19435;DHT22;9853;50.848;4.108;2022-08-19T08:19:00;23.50;99.90
19435;DHT22;9853;50.848;4.108;2022-08-19T08:21:01;23.50;99.90
19435;DHT22;9853;50.848;4.108;2022-08-19T08:23:02;23.40;99.90
19435;DHT22;9853;50.848;4.108;2022-08-19T08:25:24;23.40;99.90
19435;DHT22;9853;50.848;4.108;2022-08-19T08:27:25;23.40;99.90
19435;DHT22;9853;50.848;4.108;2022-08-19T08:29:31;23.60;99.90
19435;DHT22;9853;50.848;4.108;2022-08-19T08:31:36;23.60;99.90
19435;DHT22;9853;50.848;4.108;2022-08-19T08:33:39;23.60;99.90
19435;DHT22;9853;50.848;4.108;2022-08-19T08:35:44;23.70;99.90
19435;DHT22;9853;50.848;4.108;2022-08-19T08:37:51;23.80;99.90
19435;DHT22;9853;50.848;4.108;2022-08-19T08:39:52;23.60;99.90
19435;DHT22;9853;50.848;4.108;2022-08-19T08:42:21;23.80;99.90
19435;DHT22;9853;50.848;4.108;2022-08-19T08:44:37;24.00;99.90
19435;DHT22;9853;50.848;4.108;2022-08-19T08:46:48;24.10;99.90
19435;DHT22;9853;50.848;4.108;2022-08-19T08:51:44;24.10;99.90
19435;DHT22;9853;50.848;4.108;2022-08-19T08:53:48;23.90;99.90
19435;DHT22;9853;50.848;4.108;2022-08-19T08:55:51;23.80;99.90
19435;DHT22;9853;50.848;4.108;2022-08-19T08:59:57;23.90;99.90
19435;DHT22;9853;50.848;4.108;2022-08-19T09:02:02;24.20;99.90
19435;DHT22;9853;50.848;4.108;2022-08-19T09:04:06;24.20;99.90
19435;DHT22;9853;50.848;4.108;2022-08-19T09:10:57;24.10;99.90
19435;DHT22;9853;50.848;4.108;2022-08-19T09:15:29;23.80;99.90
19435;DHT22;9853;50.848;4.108;2022-08-19T09:17:32;23.80;99.90
19435;DHT22;9853;50.848;4.108;2022-08-19T09:19:36;23.80;99.90
19435;DHT22;9853;50.848;4.108;2022-08-19T09:21:47;23.70;99.90
19435;DHT22;9853;50.848;4.108;2022-08-19T09:23:49;23.60;99.90
19435;DHT22;9853;50.848;4.108;2022-08-19T09:25:53;23.70;99.90
19435;DHT22;9853;50.848;4.108;2022-08-19T09:28:01;23.80;99.90
19435;DHT22;9853;50.848;4.108;2022-08-19T09:30:06;23.80;99.90
19435;DHT22;9853;50.848;4.108;2022-08-19T09:32:07;23.70;99.90
19435;DHT22;9853;50.848;4.108;2022-08-19T09:34:12;23.70;99.90
19435;DHT22;9853;50.848;4.108;2022-08-19T09:36:16;23.80;99.90
19435;DHT22;9853;50.848;4.108;2022-08-19T09:38:42;23.90;99.90
19435;DHT22;9853;50.848;4.108;2022-08-19T09:40:51;23.80;99.90
19435;DHT22;9853;50.848;4.108;2022-08-19T09:42:52;23.70;99.90
19435;DHT22;9853;50.848;4.108;2022-08-19T09:44:53;23.70;99.90
19435;DHT22;9853;50.848;4.108;2022-08-19T09:46:56;23.70;99.90
19435;DHT22;9853;50.848;4.108;2022-08-19T09:49:01;23.60;99.90
19435;DHT22;9853;50.848;4.108;2022-08-19T09:51:08;23.70;99.90
19435;DHT22;9853;50.848;4.108;2022-08-19T09:53:08;23.80;99.90
19435;DHT22;9853;50.848;4.108;2022-08-19T09:55:11;24.10;99.90
19435;DHT22;9853;50.848;4.108;2022-08-19T09:57:12;24.00;99.90
19435;DHT22;9853;50.848;4.108;2022-08-19T09:59:14;24.10;99.90
19435;DHT22;9853;50.848;4.108;2022-08-19T10:01:23;24.30;99.90
19435;DHT22;9853;50.848;4.108;2022-08-19T10:03:26;24.10;99.90
19435;DHT22;9853;50.848;4.108;2022-08-19T10:05:31;23.90;99.90
19435;DHT22;9853;50.848;4.108;2022-08-19T10:07:48;23.90;99.90
19435;DHT22;9853;50.848;4.108;2022-08-19T10:09:49;23.80;99.90
19435;DHT22;9853;50.848;4.108;2022-08-19T10:11:49;23.90;99.90
19435;DHT22;9853;50.848;4.108;2022-08-19T10:13:53;24.00;99.90
19435;DHT22;9853;50.848;4.108;2022-08-19T10:16:04;24.10;99.90
19435;DHT22;9853;50.848;4.108;2022-08-19T10:18:07;24.10;99.90
19435;DHT22;9853;50.848;4.108;2022-08-19T10:20:09;24.20;99.90
19435;DHT22;9853;50.848;4.108;2022-08-19T10:22:10;24.40;99.90
19435;DHT22;9853;50.848;4.108;2022-08-19T10:24:14;24.80;99.90
19435;DHT22;9853;50.848;4.108;2022-08-19T10:26:28;25.10;99.90
19435;DHT22;9853;50.848;4.108;2022-08-19T10:28:29;25.30;99.90
19435;DHT22;9853;50.848;4.108;2022-08-19T10:30:30;25.50;99.90
19435;DHT22;9853;50.848;4.108;2022-08-19T10:32:31;25.40;99.90
19435;DHT22;9853;50.848;4.108;2022-08-19T10:34:32;25.60;99.90
19435;DHT22;9853;50.848;4.108;2022-08-19T10:36:35;25.80;99.90
19435;DHT22;9853;50.848;4.108;2022-08-19T10:38:37;25.80;99.90
19435;DHT22;9853;50.848;4.108;2022-08-19T10:40:38;25.80;99.90
19435;DHT22;9853;50.848;4.108;2022-08-19T10:42:38;26.00;99.90
19435;DHT22;9853;50.848;4.108;2022-08-19T10:44:40;25.90;99.90
19435;DHT22;9853;50.848;4.108;2022-08-19T10:46:42;25.70;99.90
19435;DHT22;9853;50.848;4.108;2022-08-19T10:48:45;25.60;99.90
19435;DHT22;9853;50.848;4.108;2022-08-19T10:53:12;25.20;99.90
19435;DHT22;9853;50.848;4.108;2022-08-19T10:55:13;25.40;99.90
19435;DHT22;9853;50.848;4.108;2022-08-19T10:57:40;25.30;99.90
19435;DHT22;9853;50.848;4.108;2022-08-19T10:59:41;25.30;99.90
19435;DHT22;9853;50.848;4.108;2022-08-19T11:01:44;25.20;99.90
19435;DHT22;9853;50.848;4.108;2022-08-19T11:03:45;25.10;99.90
19435;DHT22;9853;50.848;4.108;2022-08-19T11:05:46;25.00;99.90
19435;DHT22;9853;50.848;4.108;2022-08-19T11:07:46;25.10;99.90
19435;DHT22;9853;50.848;4.108;2022-08-19T11:09:47;25.00;99.90
19435;DHT22;9853;50.848;4.108;2022-08-19T11:11:48;24.80;99.90
19435;DHT22;9853;50.848;4.108;2022-08-19T11:13:49;24.60;99.90
19435;DHT22;9853;50.848;4.108;2022-08-19T11:16:02;24.40;99.90
19435;DHT22;9853;50.848;4.108;2022-08-19T11:18:03;24.60;99.90
19435;DHT22;9853;50.848;4.108;2022-08-19T11:20:06;24.80;99.90
19435;DHT22;9853;50.848;4.108;2022-08-19T11:22:10;25.10;99.90
19435;DHT22;9853;50.848;4.108;2022-08-19T11:24:14;25.20;99.90
19435;DHT22;9853;50.848;4.108;2022-08-19T11:26:16;25.20;99.90
19435;DHT22;9853;50.848;4.108;2022-08-19T11:28:17;25.50;99.90
19435;DHT22;9853;50.848;4.108;2022-08-19T11:30:18;25.90;99.90
19435;DHT22;9853;50.848;4.108;2022-08-19T11:32:19;25.90;99.90
19435;DHT22;9853;50.848;4.108;2022-08-19T11:34:22;26.00;99.90
19435;DHT22;9853;50.848;4.108;2022-08-19T11:36:23;25.90;99.90
19435;DHT22;9853;50.848;4.108;2022-08-19T11:38:23;25.80;99.90
19435;DHT22;9853;50.848;4.108;2022-08-19T11:40:24;26.20;99.90
19435;DHT22;9853;50.848;4.108;2022-08-19T11:42:25;26.40;99.90
19435;DHT22;9853;50.848;4.108;2022-08-19T11:44:44;26.10;99.90
19435;DHT22;9853;50.848;4.108;2022-08-19T11:46:46;25.60;99.90
19435;DHT22;9853;50.848;4.108;2022-08-19T11:48:47;25.60;99.90
19435;DHT22;9853;50.848;4.108;2022-08-19T11:50:51;25.60;99.90
19435;DHT22;9853;50.848;4.108;2022-08-19T11:52:54;25.80;99.90
19435;DHT22;9853;50.848;4.108;2022-08-19T11:54:55;25.90;99.90
19435;DHT22;9853;50.848;4.108;2022-08-19T11:56:56;25.60;99.90
19435;DHT22;9853;50.848;4.108;2022-08-19T11:58:56;25.80;99.90
19435;DHT22;9853;50.848;4.108;2022-08-19T12:00:57;26.00;99.90
19435;DHT22;9853;50.848;4.108;2022-08-19T12:02:58;26.10;99.90
19435;DHT22;9853;50.848;4.108;2022-08-19T12:05:00;26.30;99.90
19435;DHT22;9853;50.848;4.108;2022-08-19T12:07:03;26.60;99.90
19435;DHT22;9853;50.848;4.108;2022-08-19T12:09:07;26.50;99.90
19435;DHT22;9853;50.848;4.108;2022-08-19T12:11:15;26.40;99.90
19435;DHT22;9853;50.848;4.108;2022-08-19T12:13:16;26.40;99.90
19435;DHT22;9853;50.848;4.108;2022-08-19T12:15:18;26.50;99.90
19435;DHT22;9853;50.848;4.108;2022-08-19T12:17:19;26.70;99.90
19435;DHT22;9853;50.848;4.108;2022-08-19T12:19:20;26.60;99.90
19435;DHT22;9853;50.848;4.108;2022-08-19T12:21:26;26.90;99.90
19435;DHT22;9853;50.848;4.108;2022-08-19T12:23:30;26.80;99.90
19435;DHT22;9853;50.848;4.108;2022-08-19T12:25:31;26.50;99.90
19435;DHT22;9853;50.848;4.108;2022-08-19T12:27:32;26.60;99.90
19435;DHT22;9853;50.848;4.108;2022-08-19T12:29:33;26.90;99.90
19435;DHT22;9853;50.848;4.108;2022-08-19T12:31:34;27.20;99.90
19435;DHT22;9853;50.848;4.108;2022-08-19T12:33:35;27.00;99.90
19435;DHT22;9853;50.848;4.108;2022-08-19T12:35:43;26.70;99.90
19435;DHT22;9853;50.848;4.108;2022-08-19T12:37:44;26.60;99.90
19435;DHT22;9853;50.848;4.108;2022-08-19T12:39:45;26.50;99.90
19435;DHT22;9853;50.848;4.108;2022-08-19T12:41:46;26.30;99.90
19435;DHT22;9853;50.848;4.108;2022-08-19T12:43:48;26.10;99.90
19435;DHT22;9853;50.848;4.108;2022-08-19T12:45:50;26.50;99.90
19435;DHT22;9853;50.848;4.108;2022-08-19T12:47:51;26.30;99.90
19435;DHT22;9853;50.848;4.108;2022-08-19T12:49:53;26.40;99.90
19435;DHT22;9853;50.848;4.108;2022-08-19T12:51:54;26.70;99.90
19435;DHT22;9853;50.848;4.108;2022-08-19T12:53:55;26.90;99.90
19435;DHT22;9853;50.848;4.108;2022-08-19T12:55:58;27.10;99.90
19435;DHT22;9853;50.848;4.108;2022-08-19T12:58:00;27.20;99.90
19435;DHT22;9853;50.848;4.108;2022-08-19T13:00:10;27.00;99.90
19435;DHT22;9853;50.848;4.108;2022-08-19T13:02:12;26.90;99.90
19435;DHT22;9853;50.848;4.108;2022-08-19T13:04:13;26.90;99.90
19435;DHT22;9853;50.848;4.108;2022-08-19T13:06:14;27.20;99.90
19435;DHT22;9853;50.848;4.108;2022-08-19T13:08:15;27.20;99.90
19435;DHT22;9853;50.848;4.108;2022-08-19T13:10:19;27.00;99.90
19435;DHT22;9853;50.848;4.108;2022-08-19T13:12:20;27.00;99.90
19435;DHT22;9853;50.848;4.108;2022-08-19T13:14:21;26.80;99.90
19435;DHT22;9853;50.848;4.108;2022-08-19T13:16:22;26.90;99.90
19435;DHT22;9853;50.848;4.108;2022-08-19T13:18:22;27.10;99.90
19435;DHT22;9853;50.848;4.108;2022-08-19T13:20:25;27.20;99.90
19435;DHT22;9853;50.848;4.108;2022-08-19T13:22:26;27.30;99.90
19435;DHT22;9853;50.848;4.108;2022-08-19T13:24:27;27.80;99.90
19435;DHT22;9853;50.848;4.108;2022-08-19T13:26:28;28.00;99.90
19435;DHT22;9853;50.848;4.108;2022-08-19T13:28:28;27.90;99.90
19435;DHT22;9853;50.848;4.108;2022-08-19T13:30:49;28.00;99.90
19435;DHT22;9853;50.848;4.108;2022-08-19T13:33:14;27.40;99.90